Maracay, Venezuela
Current Conditions -  °F | °C
As of 8:00 PM on Wednesday 22 Oct 2014 (Local Time) from SVBS Reporting Station
Broken Clouds Broken Clouds  
Wind Chill: 81°   Ceiling: 1600
Heat Index: 88°   Visibility: 6mi
Dew Point: 79°   Wind: 5mph
Humidity: 94%   Direction: 200°SSW
Pressure: 29.94"   Gusts: NA
Location:  10.33°N, 67.47°W
Report Text: SVBS 230000Z 20004KT 9999 BKN016 27/26 Q1014
Loading
Personal Weather Stations






























Interactive Weather Map
Tropical Storm Tracking
New forecast layout! Learn more

10-Day Weather Forecast

Advertisements
Track Severe Weather on mobile